createdAt,value
2022-10-15T00:04:56.179Z,14.96648
2022-10-15T00:09:57.750Z,15.78594
2022-10-15T00:14:59.371Z,15.42036
2022-10-15T00:18:14.796Z,15.4175
2022-10-15T00:20:44.254Z,15.77768
2022-10-15T00:25:45.889Z,15.54423
2022-10-15T00:30:47.604Z,15.22693
2022-10-15T00:35:49.185Z,15.08432
2022-10-15T00:40:50.842Z,14.63489
2022-10-15T00:45:52.505Z,14.20453
2022-10-15T00:50:54.225Z,14.08447
2022-10-15T00:55:55.944Z,14.25153
2022-10-15T01:00:57.678Z,13.81069
2022-10-15T01:05:59.292Z,13.83673
2022-10-15T01:11:00.927Z,13.13577
2022-10-15T01:16:02.577Z,13.17928
2022-10-15T01:21:04.278Z,12.80704
2022-10-15T01:26:05.871Z,12.49515
2022-10-15T01:31:07.613Z,12.46339
2022-10-15T01:36:09.231Z,12.29633
2022-10-15T01:41:10.851Z,12.5555
2022-10-15T01:46:12.488Z,12.10132
2022-10-15T01:51:14.095Z,11.80468
2022-10-15T01:56:15.648Z,12.05177
2022-10-15T02:01:17.259Z,12.06861
2022-10-15T02:06:18.882Z,11.79737
2022-10-15T02:11:20.493Z,11.40577
2022-10-15T02:16:22.072Z,11.04179
2022-10-15T02:21:23.694Z,11.06244
2022-10-15T02:26:25.307Z,10.97192
2022-10-15T02:31:27.069Z,10.57365
2022-10-15T02:36:28.680Z,10.63558
2022-10-15T02:41:30.386Z,11.17773
2022-10-15T02:46:32.035Z,10.32973
2022-10-15T02:51:33.804Z,10.92682
2022-10-15T02:56:35.404Z,10.71149
2022-10-15T03:01:36.979Z,10.48599
2022-10-15T03:06:38.602Z,10.49266
2022-10-15T03:11:40.212Z,10.04135
2022-10-15T03:16:41.776Z,10.00261
2022-10-15T03:21:43.410Z,9.82856
2022-10-15T03:26:45.022Z,10.07756
2022-10-15T03:31:46.605Z,9.96132
2022-10-15T03:36:48.188Z,9.92543
2022-10-15T03:41:49.805Z,10.10392
2022-10-15T03:46:51.435Z,10.19634
2022-10-15T03:51:53.059Z,9.92797
2022-10-15T03:56:54.702Z,9.87271
2022-10-15T04:01:56.452Z,9.96735
2022-10-15T04:06:58.065Z,9.81459
2022-10-15T04:12:00.814Z,9.76187
2022-10-15T04:17:02.439Z,9.75837
2022-10-15T04:22:03.998Z,9.23148
2022-10-15T04:27:05.733Z,9.19686
2022-10-15T04:32:07.356Z,8.86529
2022-10-15T04:37:08.963Z,8.97201
2022-10-15T04:42:10.545Z,9.1651
2022-10-15T04:47:12.105Z,8.87006
2022-10-15T04:52:13.737Z,9.09682
2022-10-15T04:57:15.320Z,9.3058
2022-10-15T05:02:17.026Z,9.57417
2022-10-15T05:07:18.722Z,9.33851
2022-10-15T05:12:20.346Z,9.25594
2022-10-15T05:17:22.316Z,9.07777
2022-10-15T05:22:24.319Z,8.8853
2022-10-15T05:27:26.106Z,8.49371
2022-10-15T05:32:27.721Z,8.65282
2022-10-15T05:37:29.330Z,8.41781
2022-10-15T05:42:30.910Z,8.50641
2022-10-15T05:47:52.309Z,8.70936
2022-10-15T05:52:53.935Z,8.23074
2022-10-15T05:57:55.494Z,7.55491
2022-10-15T06:02:57.173Z,7.38691
2022-10-15T06:07:58.772Z,7.45392
2022-10-15T06:13:00.381Z,8.09291
2022-10-15T06:18:02.013Z,7.4879
2022-10-15T06:23:03.559Z,6.464
2022-10-15T06:28:05.191Z,7.48314
2022-10-15T06:33:06.857Z,7.71307
2022-10-15T06:38:08.487Z,7.42819
2022-10-15T06:43:10.233Z,6.97785
2022-10-15T06:48:11.796Z,6.93593
2022-10-15T06:53:13.377Z,7.39294
2022-10-15T06:58:17.446Z,7.59525
2022-10-15T07:03:20.948Z,7.29766
2022-10-15T07:08:23.593Z,7.32625
2022-10-15T07:13:25.214Z,7.41104
2022-10-15T07:18:26.815Z,7.86996
2022-10-15T07:23:28.399Z,7.61716
2022-10-15T07:28:30.110Z,7.37547
2022-10-15T07:33:31.770Z,7.36118
2022-10-15T07:38:33.443Z,6.99373
2022-10-15T07:43:35.034Z,7.29322
2022-10-15T07:48:36.631Z,7.11982
2022-10-15T07:53:38.317Z,7.15697
2022-10-15T07:58:39.895Z,7.3399
2022-10-15T08:03:41.548Z,6.83303
2022-10-15T08:08:43.159Z,7.06011
2022-10-15T08:13:44.723Z,6.93403
2022-10-15T08:18:46.351Z,6.88893
2022-10-15T08:23:48.010Z,6.9769
2022-10-15T08:28:49.611Z,6.9931
2022-10-15T08:33:51.238Z,6.69901
2022-10-15T08:38:52.859Z,6.70981
2022-10-15T08:43:54.610Z,6.85527
2022-10-15T08:48:56.183Z,6.57547
2022-10-15T08:53:57.784Z,6.54943
2022-10-15T08:58:59.371Z,6.57769
2022-10-15T09:04:00.931Z,6.83145
2022-10-15T09:09:02.565Z,6.60247
2022-10-15T09:14:04.169Z,6.32331
2022-10-15T09:19:05.873Z,6.37539
2022-10-15T09:24:07.464Z,6.41064
2022-10-15T09:29:09.087Z,6.30584
2022-10-15T09:34:10.764Z,6.5434
2022-10-15T09:39:12.396Z,6.64375
2022-10-15T09:44:14.022Z,6.73903
2022-10-15T09:49:15.598Z,6.48782
2022-10-15T09:54:17.171Z,6.56182
2022-10-15T09:59:18.789Z,6.60596
2022-10-15T10:04:20.414Z,6.56436
2022-10-15T10:09:22.003Z,6.57071
2022-10-15T10:14:23.590Z,6.4081
2022-10-15T10:19:25.182Z,5.76658
2022-10-15T10:24:26.758Z,6.22867
2022-10-15T10:29:34.122Z,5.9222
2022-10-15T10:34:36.265Z,5.85519
2022-10-15T10:39:37.919Z,5.98095
2022-10-15T10:44:39.548Z,5.73514
2022-10-15T10:49:41.125Z,5.88187
2022-10-15T10:59:44.319Z,5.71672
2022-10-15T11:04:45.931Z,6.19278
2022-10-15T11:09:50.054Z,6.01684
2022-10-15T11:14:55.306Z,5.72244
2022-10-15T11:20:21.775Z,5.75833
2022-10-15T11:25:32.125Z,5.94189
2022-10-15T11:30:33.698Z,5.69703
2022-10-15T11:35:52.363Z,5.41978
2022-10-15T11:40:54.877Z,5.57667
2022-10-15T11:45:56.508Z,5.48965
2022-10-15T11:50:58.121Z,5.38358
2022-10-15T11:55:59.833Z,5.42899
2022-10-15T12:01:01.436Z,5.58397
2022-10-15T12:06:03.045Z,5.26608
2022-10-15T12:11:04.680Z,5.355
2022-10-15T12:16:06.264Z,5.50045
2022-10-15T12:21:07.875Z,5.22098
2022-10-15T12:26:09.701Z,5.39914
2022-10-15T12:31:11.324Z,5.28735
2022-10-15T12:36:12.932Z,5.50363
2022-10-15T12:41:14.583Z,5.00566
2022-10-15T12:46:16.149Z,5.28958
2022-10-15T12:51:17.697Z,5.02662
2022-10-15T12:56:19.441Z,5.18414
2022-10-15T13:01:21.160Z,4.93166
2022-10-15T13:06:22.846Z,4.99804
2022-10-15T13:11:24.483Z,4.94405
2022-10-15T13:16:26.095Z,4.85798
2022-10-15T13:21:27.812Z,4.97358
2022-10-15T13:26:29.475Z,5.17525
2022-10-15T13:31:31.191Z,4.92309
2022-10-15T13:36:32.821Z,4.95135
2022-10-15T13:41:34.452Z,5.13523
2022-10-15T13:46:36.123Z,4.81924
2022-10-15T13:51:37.729Z,4.86624
2022-10-15T13:56:39.382Z,5.08505
2022-10-15T14:01:41.019Z,4.99264
2022-10-15T14:06:42.702Z,5.01614
2022-10-15T14:11:44.388Z,5.0209
2022-10-15T14:16:45.979Z,5.1022
2022-10-15T14:21:47.597Z,5.21272
2022-10-15T14:26:49.224Z,5.26893
2022-10-15T14:31:50.825Z,4.99232
2022-10-15T14:36:52.421Z,4.47467
2022-10-15T14:41:54.064Z,5.18096
2022-10-15T14:46:55.743Z,5.11522
2022-10-15T14:51:57.339Z,5.13174
2022-10-15T14:56:58.962Z,5.27497
2022-10-15T15:02:02.841Z,5.17239
2022-10-15T15:07:05.328Z,6.14419
2022-10-15T15:12:06.948Z,5.96539
2022-10-15T15:17:08.544Z,6.23248
2022-10-15T15:22:10.141Z,6.46305
2022-10-15T15:27:11.763Z,7.06265
2022-10-15T15:32:13.341Z,6.33474
2022-10-15T15:37:14.960Z,8.09831
2022-10-15T15:42:16.539Z,8.0259
2022-10-15T15:47:18.144Z,8.66902
2022-10-15T15:52:19.744Z,8.1199
2022-10-15T15:57:21.331Z,8.33523
2022-10-15T16:02:22.939Z,7.95825
2022-10-15T16:07:28.130Z,8.40955
2022-10-15T16:12:30.105Z,9.18035
2022-10-15T16:17:31.718Z,9.73582
2022-10-15T16:22:33.345Z,10.84329
2022-10-15T16:27:34.955Z,11.64047
2022-10-15T16:32:36.530Z,12.44846
2022-10-15T16:37:38.098Z,12.02795
2022-10-15T16:42:39.726Z,13.08114
2022-10-15T16:47:41.295Z,13.8326
2022-10-15T16:52:42.958Z,11.05672
2022-10-15T16:57:44.583Z,12.79783
2022-10-15T17:02:46.147Z,12.07369
2022-10-15T17:07:47.771Z,13.12878
2022-10-15T17:12:49.479Z,14.58725
2022-10-15T17:17:51.075Z,14.55295
2022-10-15T17:22:52.689Z,13.93678
2022-10-15T17:27:54.297Z,14.8207
2022-10-15T17:32:55.883Z,14.99221
2022-10-15T17:37:57.504Z,15.01381
2022-10-15T17:42:59.159Z,14.37636
2022-10-15T17:48:00.940Z,15.15642
2022-10-15T17:53:02.552Z,15.66048
2022-10-15T17:58:04.126Z,15.16023
2022-10-15T18:03:05.718Z,15.15356
2022-10-15T18:08:07.307Z,15.31173
2022-10-15T18:13:09.110Z,14.95378
2022-10-15T18:18:10.695Z,15.18056
2022-10-15T18:23:12.261Z,15.9133
2022-10-15T18:28:14.047Z,16.33955
2022-10-15T18:33:15.629Z,16.51551
2022-10-15T18:38:17.255Z,15.67636
2022-10-15T18:43:19.586Z,15.266
2022-10-15T18:48:21.279Z,16.83885
2022-10-15T18:53:23.023Z,16.3243
2022-10-15T18:58:24.611Z,15.79515
2022-10-15T19:03:26.192Z,16.57522
2022-10-15T19:08:27.800Z,17.70152
2022-10-15T19:13:29.301Z,18.09188
2022-10-15T19:18:30.875Z,17.68024
2022-10-15T19:23:32.434Z,18.56038
2022-10-15T19:28:34.127Z,18.39426
2022-10-15T19:33:35.813Z,18.68838
2022-10-15T19:38:37.469Z,19.37224
2022-10-15T19:43:39.059Z,19.48024
2022-10-15T19:48:40.664Z,19.77945
2022-10-15T19:53:42.312Z,20.30577
2022-10-15T19:58:43.901Z,20.1352
2022-10-15T20:03:45.478Z,20.62976
2022-10-15T20:08:47.095Z,20.38009
2022-10-15T20:13:48.711Z,21.38478
2022-10-15T20:18:50.331Z,20.95597
2022-10-15T20:23:51.931Z,21.29203
2022-10-15T20:28:53.655Z,20.84892
2022-10-15T20:33:55.317Z,20.14219
2022-10-15T20:38:56.898Z,20.21238
2022-10-15T20:43:58.524Z,20.90928
2022-10-15T20:49:03.265Z,19.7029
2022-10-15T20:54:07.749Z,19.65811
2022-10-15T20:59:09.384Z,17.8184
2022-10-15T21:04:11.062Z,18.1859
2022-10-15T21:09:12.650Z,17.67357
2022-10-15T21:14:14.215Z,18.08076
2022-10-15T21:19:15.904Z,17.86763
2022-10-15T21:24:17.458Z,17.81459
2022-10-15T21:29:19.077Z,18.09474
2022-10-15T21:34:20.656Z,17.92798
2022-10-15T21:39:22.258Z,18.41808
2022-10-15T21:44:23.865Z,18.07505
2022-10-15T21:49:25.469Z,18.04741
2022-10-15T21:54:27.068Z,17.48426
2022-10-15T21:59:28.716Z,18.12682
2022-10-15T22:04:30.338Z,18.35519
2022-10-15T22:09:31.947Z,18.54259
2022-10-15T22:14:33.682Z,19.15467
2022-10-15T22:19:35.277Z,19.37796
2022-10-15T22:24:36.889Z,18.48891
2022-10-15T22:29:38.559Z,18.64868
2022-10-15T22:34:40.401Z,19.35795
2022-10-15T22:39:42.000Z,19.92524
2022-10-15T22:44:43.639Z,20.19523
2022-10-15T22:49:45.268Z,21.06142
2022-10-15T22:54:46.981Z,21.16084
2022-10-15T22:59:48.548Z,20.92547
2022-10-15T23:04:50.180Z,20.76824
2022-10-15T23:09:51.807Z,20.05547
2022-10-15T23:14:53.406Z,20.10216
2022-10-15T23:19:55.016Z,19.65398
2022-10-15T23:24:56.631Z,19.1337
2022-10-15T23:30:13.994Z,18.14175
2022-10-15T23:35:25.630Z,17.85271
2022-10-15T23:40:27.295Z,17.44075
2022-10-15T23:45:28.926Z,17.62465
2022-10-15T23:50:30.523Z,17.49188
2022-10-15T23:55:32.131Z,16.90428
